Time;durP1;ratioP1;P1;durP2;ratioP2;P2;SDS_P1;SDS_P2;PMS_P1;PMS_P2;Temp;Humidity;BMP_temperature;BMP_pressure;BME280_temperature;BME280_humidity;BME280_pressure;Samples;Min_cycle;Max_cycle;Signal;HPM_P1;HPM_P2
2022/03/29 00:02:14;;;;;;;;;;;5.40;98.20;;;;;;5051473;28;19943;-74
2022/03/29 00:04:40;;;;;;;;;;;5.30;98.20;;;;;;5036480;28;19905;-74
2022/03/29 00:07:05;;;;;;;;;;;5.30;98.30;;;;;;5036074;28;19909;-74
2022/03/29 00:09:31;;;;;;;;;;;5.20;99.10;;;;;;5036018;28;19909;-74
2022/03/29 00:11:56;;;;;;;;;;;5.10;99.90;;;;;;5036257;28;19905;-73
2022/03/29 00:14:22;;;;;;;;;;;5.00;99.90;;;;;;5036141;28;19905;-73
2022/03/29 00:16:47;;;;;;;;;;;4.90;99.90;;;;;;5035859;28;20004;-74
2022/03/29 00:19:13;;;;;;;;;;;4.90;99.90;;;;;;5036027;28;19975;-74
2022/03/29 00:21:39;;;;;;;;;;;4.90;99.90;;;;;;5036091;28;20341;-74
2022/03/29 00:24:05;;;;;;;;;;;4.90;99.90;;;;;;5035668;28;20000;-73
2022/03/29 00:26:31;;;;;;;;;;;4.90;99.90;;;;;;5035762;28;19913;-74
2022/03/29 00:28:56;;;;;;;;;;;4.80;99.90;;;;;;5035653;28;19910;-74
2022/03/29 00:31:22;;;;;;;;;;;4.80;99.90;;;;;;5035881;28;19912;-74
2022/03/29 00:33:48;;;;;;;;;;;4.80;99.90;;;;;;5035524;28;20064;-73
2022/03/29 00:36:14;;;;;;;;;;;4.70;99.90;;;;;;5051237;28;19952;-74
2022/03/29 00:38:40;;;;;;;;;;;4.70;99.90;;;;;;5035805;28;19909;-74
2022/03/29 00:41:06;;;;;;;;;;;4.70;99.90;;;;;;5035476;28;19913;-74
2022/03/29 00:43:31;;;;;;;;;;;4.70;99.90;;;;;;5035692;28;19905;-73
2022/03/29 00:45:57;;;;;;;;;;;4.70;99.90;;;;;;5035386;28;19915;-73
2022/03/29 00:48:23;;;;;;;;;;;4.70;99.90;;;;;;5035598;28;19992;-73
2022/03/29 00:50:49;;;;;;;;;;;4.70;99.90;;;;;;5035814;28;19996;-74
2022/03/29 00:53:16;;;;;;;;;;;4.70;99.90;;;;;;5035147;28;20353;-73
2022/03/29 00:55:42;;;;;;;;;;;4.70;99.90;;;;;;5034858;28;20365;-74
2022/03/29 00:58:09;;;;;;;;;;;4.70;99.90;;;;;;5035099;28;19955;-74
2022/03/29 01:00:35;;;;;;;;;;;4.60;99.90;;;;;;5035067;28;20392;-73
2022/03/29 01:03:04;;;;;;;;;;;4.40;99.90;;;;;;5035431;28;20256;-73
2022/03/29 01:05:30;;;;;;;;;;;4.30;99.90;;;;;;5035046;28;19916;-74
2022/03/29 01:07:56;;;;;;;;;;;4.30;99.90;;;;;;5035788;28;20007;-73
2022/03/29 01:10:22;;;;;;;;;;;4.30;99.90;;;;;;5035473;28;19916;-73
2022/03/29 01:12:48;;;;;;;;;;;4.30;99.90;;;;;;5035070;28;19908;-73
2022/03/29 01:15:14;;;;;;;;;;;4.30;99.90;;;;;;5035104;28;19912;-74
2022/03/29 01:17:41;;;;;;;;;;;4.30;99.90;;;;;;5035352;28;20379;-73
2022/03/29 01:20:07;;;;;;;;;;;4.30;99.90;;;;;;5049985;28;19916;-74
2022/03/29 01:22:33;;;;;;;;;;;4.30;99.90;;;;;;5034578;28;20277;-73
2022/03/29 01:24:58;;;;;;;;;;;4.30;99.90;;;;;;5050287;28;20257;-74
2022/03/29 01:27:24;;;;;;;;;;;4.30;99.90;;;;;;5034794;28;19919;-74
2022/03/29 01:29:51;;;;;;;;;;;4.20;99.90;;;;;;5034585;28;19951;-74
2022/03/29 01:32:17;;;;;;;;;;;4.20;99.90;;;;;;5034444;28;20572;-73
2022/03/29 01:34:43;;;;;;;;;;;4.20;99.90;;;;;;5034410;28;19999;-74
2022/03/29 01:37:09;;;;;;;;;;;4.10;99.90;;;;;;5034379;28;19905;-74
2022/03/29 01:39:36;;;;;;;;;;;4.20;99.90;;;;;;5034808;28;20012;-74
2022/03/29 01:42:03;;;;;;;;;;;4.10;99.90;;;;;;5034359;28;19906;-74
2022/03/29 01:44:29;;;;;;;;;;;4.10;99.90;;;;;;5034739;28;19905;-73
2022/03/29 01:46:54;;;;;;;;;;;4.10;99.90;;;;;;5034216;28;19959;-73
2022/03/29 01:49:20;;;;;;;;;;;4.10;99.90;;;;;;5034730;28;20303;-74
2022/03/29 01:51:46;;;;;;;;;;;4.10;99.90;;;;;;5034165;28;20043;-74
2022/03/29 01:54:11;;;;;;;;;;;4.10;99.90;;;;;;5049449;28;19971;-74
2022/03/29 01:56:37;;;;;;;;;;;4.10;99.90;;;;;;5034101;28;19940;-74
2022/03/29 01:59:04;;;;;;;;;;;4.10;99.90;;;;;;5034047;28;20316;-74
2022/03/29 02:01:29;;;;;;;;;;;4.10;99.90;;;;;;5033921;28;19913;-74
2022/03/29 02:03:55;;;;;;;;;;;4.10;99.90;;;;;;5034238;28;19988;-73
2022/03/29 02:06:20;;;;;;;;;;;4.00;99.90;;;;;;5033981;28;19912;-74
2022/03/29 02:08:46;;;;;;;;;;;4.00;99.90;;;;;;5033539;28;19905;-74
2022/03/29 02:11:11;;;;;;;;;;;3.90;99.90;;;;;;5034245;28;19909;-74
2022/03/29 02:13:38;;;;;;;;;;;3.80;99.90;;;;;;5033775;28;19909;-73
2022/03/29 02:16:04;;;;;;;;;;;3.70;99.90;;;;;;5034203;28;19905;-74
2022/03/29 02:18:29;;;;;;;;;;;3.70;99.90;;;;;;5049211;28;19912;-74
2022/03/29 02:20:55;;;;;;;;;;;3.60;99.90;;;;;;5033710;28;19909;-74
2022/03/29 02:23:20;;;;;;;;;;;3.50;99.90;;;;;;5049052;28;19913;-74
2022/03/29 02:25:47;;;;;;;;;;;3.40;99.90;;;;;;5033656;28;20000;-74
2022/03/29 02:28:13;;;;;;;;;;;3.40;99.90;;;;;;5033847;28;19944;-74
2022/03/29 02:30:38;;;;;;;;;;;3.40;99.90;;;;;;5034323;28;20326;-74
2022/03/29 02:33:04;;;;;;;;;;;3.40;99.90;;;;;;5033611;28;19931;-74
2022/03/29 02:35:30;;;;;;;;;;;3.50;99.90;;;;;;5033755;28;19955;-73
2022/03/29 02:37:56;;;;;;;;;;;3.50;99.90;;;;;;5034013;28;19940;-74
2022/03/29 02:40:21;;;;;;;;;;;3.40;99.90;;;;;;5048908;28;19932;-74
2022/03/29 02:42:48;;;;;;;;;;;3.40;99.90;;;;;;5033534;28;19996;-74
2022/03/29 02:45:15;;;;;;;;;;;3.40;99.90;;;;;;5033628;28;19912;-74
2022/03/29 02:47:41;;;;;;;;;;;3.40;99.90;;;;;;5033579;28;20343;-74
2022/03/29 02:50:07;;;;;;;;;;;3.50;99.90;;;;;;5049178;28;20063;-74
2022/03/29 02:52:33;;;;;;;;;;;3.50;99.90;;;;;;5033438;28;19905;-73
2022/03/29 02:54:58;;;;;;;;;;;3.50;99.90;;;;;;5033768;28;19909;-74
2022/03/29 02:57:24;;;;;;;;;;;3.40;99.90;;;;;;5033473;28;19905;-74
2022/03/29 02:59:49;;;;;;;;;;;3.40;99.90;;;;;;5033360;28;19952;-74
2022/03/29 03:02:15;;;;;;;;;;;3.40;99.90;;;;;;5033650;28;19905;-73
2022/03/29 03:04:41;;;;;;;;;;;3.40;99.90;;;;;;5033390;28;19901;-74
2022/03/29 03:07:06;;;;;;;;;;;3.30;99.90;;;;;;5048682;28;19905;-74
2022/03/29 03:09:32;;;;;;;;;;;3.20;99.90;;;;;;5033619;28;19909;-74
2022/03/29 03:11:57;;;;;;;;;;;3.20;99.90;;;;;;5033403;28;19955;-74
2022/03/29 03:14:23;;;;;;;;;;;3.20;99.90;;;;;;5033244;28;19932;-74
2022/03/29 03:16:48;;;;;;;;;;;3.20;99.90;;;;;;5032036;28;19912;-74
2022/03/29 03:19:14;;;;;;;;;;;3.20;99.90;;;;;;5034690;28;19941;-74
2022/03/29 03:21:39;;;;;;;;;;;3.20;99.90;;;;;;5036855;28;20386;-74
2022/03/29 03:24:05;;;;;;;;;;;3.20;99.90;;;;;;5036793;28;20340;-74
2022/03/29 03:26:30;;;;;;;;;;;3.20;99.90;;;;;;5036626;28;19968;-74
2022/03/29 03:28:56;;;;;;;;;;;3.20;99.90;;;;;;5036814;28;19995;-74
2022/03/29 03:31:21;;;;;;;;;;;3.20;99.90;;;;;;5037514;28;20264;-74
2022/03/29 03:33:47;;;;;;;;;;;3.20;99.90;;;;;;5037149;28;19916;-72
2022/03/29 03:36:12;;;;;;;;;;;3.20;99.90;;;;;;5036972;28;19912;-72
2022/03/29 03:38:38;;;;;;;;;;;3.20;99.90;;;;;;5036917;28;19974;-72
2022/03/29 03:41:03;;;;;;;;;;;3.20;99.90;;;;;;5036507;28;20324;-72
2022/03/29 03:43:29;;;;;;;;;;;3.20;99.90;;;;;;5036443;28;20411;-72
2022/03/29 03:45:55;;;;;;;;;;;3.20;99.90;;;;;;5035238;28;19959;-72
2022/03/29 03:48:22;;;;;;;;;;;3.20;99.90;;;;;;5036433;28;19905;-72
2022/03/29 03:50:47;;;;;;;;;;;3.20;99.90;;;;;;5036746;28;20404;-72
2022/03/29 03:53:13;;;;;;;;;;;3.10;99.90;;;;;;5036760;28;19908;-72
2022/03/29 03:55:38;;;;;;;;;;;3.10;99.90;;;;;;5036292;28;19916;-72
2022/03/29 03:58:04;;;;;;;;;;;3.10;99.90;;;;;;5036861;28;19991;-72
2022/03/29 04:00:29;;;;;;;;;;;3.10;99.90;;;;;;5036395;28;20312;-72
2022/03/29 04:02:56;;;;;;;;;;;3.10;99.90;;;;;;5036099;28;19905;-72
2022/03/29 04:05:21;;;;;;;;;;;3.10;99.90;;;;;;5036420;28;19905;-72
2022/03/29 04:07:47;;;;;;;;;;;3.10;99.90;;;;;;5036074;28;20335;-72
2022/03/29 04:10:12;;;;;;;;;;;3.10;99.90;;;;;;5036006;28;19909;-72
2022/03/29 04:12:38;;;;;;;;;;;3.10;99.90;;;;;;5035946;28;19916;-72
2022/03/29 04:15:04;;;;;;;;;;;3.00;99.90;;;;;;5036284;28;19912;-72
2022/03/29 04:17:31;;;;;;;;;;;3.10;99.90;;;;;;5035858;28;19928;-72
2022/03/29 04:19:57;;;;;;;;;;;3.00;99.90;;;;;;5035835;28;20356;-72
2022/03/29 04:22:23;;;;;;;;;;;3.00;99.90;;;;;;5036081;28;19924;-72
2022/03/29 04:24:49;;;;;;;;;;;3.00;99.90;;;;;;5035759;28;19905;-72
2022/03/29 04:27:14;;;;;;;;;;;3.00;99.90;;;;;;5035592;28;19919;-71
2022/03/29 04:29:40;;;;;;;;;;;2.90;99.90;;;;;;5035698;28;19927;-72
2022/03/29 04:32:06;;;;;;;;;;;2.90;99.90;;;;;;5035571;28;19905;-72
2022/03/29 04:34:32;;;;;;;;;;;2.90;99.90;;;;;;5035543;28;20285;-72
2022/03/29 04:36:59;;;;;;;;;;;2.90;99.90;;;;;;5035861;28;19955;-71
2022/03/29 04:39:24;;;;;;;;;;;2.80;99.90;;;;;;5035522;28;19905;-71
2022/03/29 04:41:50;;;;;;;;;;;2.70;99.90;;;;;;5035457;28;19905;-72
2022/03/29 04:44:15;;;;;;;;;;;2.70;99.90;;;;;;5035326;28;20361;-72
2022/03/29 04:46:41;;;;;;;;;;;2.70;99.90;;;;;;5035353;28;20258;-72
2022/03/29 04:49:07;;;;;;;;;;;2.70;99.90;;;;;;5035828;28;20411;-73
2022/03/29 04:51:33;;;;;;;;;;;2.70;99.90;;;;;;5035313;28;20437;-72
2022/03/29 04:53:59;;;;;;;;;;;2.70;99.90;;;;;;5035193;28;20361;-73
2022/03/29 04:56:25;;;;;;;;;;;2.60;99.90;;;;;;5035204;28;19912;-73
2022/03/29 04:58:50;;;;;;;;;;;2.50;99.90;;;;;;5050481;28;19905;-73
2022/03/29 05:01:16;;;;;;;;;;;2.50;99.90;;;;;;5035004;28;19916;-73
2022/03/29 05:03:41;;;;;;;;;;;2.40;99.90;;;;;;5034910;28;19905;-73
2022/03/29 05:06:07;;;;;;;;;;;2.40;99.90;;;;;;5035024;28;19913;-73
2022/03/29 05:08:33;;;;;;;;;;;2.40;99.90;;;;;;5034919;28;19956;-73
2022/03/29 05:10:58;;;;;;;;;;;2.40;99.90;;;;;;5034912;28;19912;-73
2022/03/29 05:13:23;;;;;;;;;;;2.40;99.90;;;;;;5034766;28;19905;-73
2022/03/29 05:15:49;;;;;;;;;;;2.30;99.90;;;;;;5034783;28;19906;-73
2022/03/29 05:18:14;;;;;;;;;;;2.30;99.90;;;;;;5034756;28;19905;-72
2022/03/29 05:20:40;;;;;;;;;;;2.30;99.90;;;;;;5034916;28;20349;-73
2022/03/29 05:23:09;;;;;;;;;;;2.30;99.90;;;;;;5034570;28;20365;-73
2022/03/29 05:25:35;;;;;;;;;;;2.30;99.90;;;;;;5034512;28;19999;-73
2022/03/29 05:28:01;;;;;;;;;;;2.30;99.90;;;;;;5034897;28;20361;-73
2022/03/29 05:30:27;;;;;;;;;;;2.30;99.90;;;;;;5049890;28;19988;-73
2022/03/29 05:32:57;;;;;;;;;;;2.40;99.90;;;;;;5034708;28;19909;-73
2022/03/29 05:35:29;;;;;;;;;;;2.40;99.90;;;;;;5034761;28;20047;-73
2022/03/29 05:37:55;;;;;;;;;;;2.40;99.90;;;;;;5034621;28;19955;-73
2022/03/29 05:40:21;;;;;;;;;;;2.40;99.90;;;;;;5049525;28;19909;-73
2022/03/29 05:42:47;;;;;;;;;;;2.50;99.90;;;;;;5033171;28;19916;-73
2022/03/29 05:45:13;;;;;;;;;;;2.50;99.90;;;;;;5032934;28;19905;-73
2022/03/29 05:50:23;;;;;;;;;;;2.50;99.90;;;;;;5034260;28;20114;-72
2022/03/29 05:52:49;;;;;;;;;;;2.50;99.90;;;;;;5034158;28;19945;-72
2022/03/29 05:55:15;;;;;;;;;;;2.60;99.90;;;;;;5034384;28;19960;-72
2022/03/29 05:57:41;;;;;;;;;;;2.60;99.90;;;;;;5049441;28;19905;-72
2022/03/29 06:00:10;;;;;;;;;;;2.60;99.90;;;;;;5049267;28;19959;-72
2022/03/29 06:02:38;;;;;;;;;;;2.60;99.90;;;;;;5033888;28;20335;-73
2022/03/29 06:05:04;;;;;;;;;;;2.60;99.90;;;;;;5034183;28;19909;-72
2022/03/29 06:07:30;;;;;;;;;;;2.70;99.90;;;;;;5033933;28;19959;-72
2022/03/29 06:09:55;;;;;;;;;;;2.70;99.90;;;;;;5033918;28;19905;-72
2022/03/29 06:12:22;;;;;;;;;;;2.70;99.90;;;;;;5032555;28;19999;-73
2022/03/29 06:14:47;;;;;;;;;;;2.70;99.90;;;;;;5033864;28;19905;-72
2022/03/29 06:17:15;;;;;;;;;;;2.80;99.90;;;;;;5030186;28;19999;-72
2022/03/29 06:19:41;;;;;;;;;;;2.80;99.90;;;;;;5027684;28;19916;-73
2022/03/29 06:22:07;;;;;;;;;;;2.80;99.90;;;;;;5031865;28;19905;-73
2022/03/29 06:24:32;;;;;;;;;;;2.90;99.90;;;;;;5031666;28;19958;-74
2022/03/29 06:26:58;;;;;;;;;;;2.90;99.90;;;;;;5032082;28;19917;-72
2022/03/29 06:29:24;;;;;;;;;;;2.90;99.90;;;;;;5033211;28;20383;-72
2022/03/29 06:31:51;;;;;;;;;;;3.00;99.90;;;;;;5033312;28;19909;-73
2022/03/29 06:34:16;;;;;;;;;;;3.00;99.90;;;;;;5032319;28;20356;-72
2022/03/29 06:36:42;;;;;;;;;;;3.10;99.90;;;;;;5032391;28;20010;-72
2022/03/29 06:39:08;;;;;;;;;;;3.10;99.90;;;;;;5033669;28;19913;-72
2022/03/29 06:41:34;;;;;;;;;;;3.10;99.90;;;;;;5033616;28;19909;-72
2022/03/29 06:44:00;;;;;;;;;;;3.20;99.90;;;;;;5033565;28;19905;-73
2022/03/29 06:46:26;;;;;;;;;;;3.20;99.90;;;;;;5033812;28;19928;-72
2022/03/29 06:48:54;;;;;;;;;;;3.30;99.90;;;;;;5033496;28;20361;-73
2022/03/29 06:51:19;;;;;;;;;;;3.30;99.90;;;;;;5033566;28;19971;-72
2022/03/29 06:53:45;;;;;;;;;;;3.40;99.90;;;;;;5034608;28;20381;-72
2022/03/29 06:56:11;;;;;;;;;;;3.40;99.90;;;;;;5037622;28;19995;-73
2022/03/29 06:58:37;;;;;;;;;;;3.40;99.90;;;;;;5037346;28;19912;-72
2022/03/29 07:01:03;;;;;;;;;;;3.50;99.90;;;;;;5037565;28;19909;-73
2022/03/29 07:03:29;;;;;;;;;;;3.60;99.90;;;;;;5037224;28;19992;-73
2022/03/29 07:05:55;;;;;;;;;;;3.70;99.90;;;;;;5036459;28;19912;-72
2022/03/29 07:08:22;;;;;;;;;;;3.70;99.90;;;;;;5037222;28;20284;-73
2022/03/29 07:13:32;;;;;;;;;;;3.90;99.90;;;;;;5037614;28;19912;-73
2022/03/29 07:15:58;;;;;;;;;;;4.10;99.90;;;;;;5037620;28;19909;-73
2022/03/29 07:18:23;;;;;;;;;;;4.20;99.90;;;;;;5036997;28;19992;-73
2022/03/29 07:20:49;;;;;;;;;;;4.30;99.90;;;;;;5036948;28;20326;-73
2022/03/29 07:23:14;;;;;;;;;;;4.40;99.90;;;;;;5037017;28;20381;-73
2022/03/29 07:25:40;;;;;;;;;;;4.50;99.90;;;;;;5036706;28;19909;-73
2022/03/29 07:28:11;;;;;;;;;;;4.60;99.90;;;;;;5036851;28;19905;-73
2022/03/29 07:30:38;;;;;;;;;;;4.70;99.90;;;;;;5036826;28;19905;-73
2022/03/29 07:33:03;;;;;;;;;;;4.80;99.90;;;;;;5036956;28;19905;-73
2022/03/29 07:35:29;;;;;;;;;;;4.90;99.90;;;;;;5037138;28;19972;-73
2022/03/29 07:37:56;;;;;;;;;;;5.00;99.90;;;;;;5034334;28;20392;-74
2022/03/29 07:40:23;;;;;;;;;;;5.10;99.90;;;;;;5035294;28;19909;-73
2022/03/29 07:42:49;;;;;;;;;;;5.20;99.90;;;;;;5033969;28;19909;-74
2022/03/29 07:45:16;;;;;;;;;;;5.30;99.90;;;;;;5035298;28;19905;-74
2022/03/29 07:47:42;;;;;;;;;;;5.40;99.90;;;;;;5035250;28;19979;-73
2022/03/29 07:50:08;;;;;;;;;;;5.50;99.90;;;;;;5035176;28;20357;-73
2022/03/29 07:52:37;;;;;;;;;;;5.70;99.90;;;;;;5035867;28;19905;-73
2022/03/29 07:55:03;;;;;;;;;;;5.80;99.90;;;;;;5036363;28;19905;-73
2022/03/29 07:57:29;;;;;;;;;;;6.00;99.90;;;;;;5036907;28;19906;-73
2022/03/29 07:59:55;;;;;;;;;;;6.10;99.90;;;;;;5036505;28;19916;-74
2022/03/29 08:02:20;;;;;;;;;;;6.30;99.90;;;;;;5035000;28;19905;-73
2022/03/29 08:04:46;;;;;;;;;;;6.50;99.90;;;;;;5036157;28;19919;-74
2022/03/29 08:07:12;;;;;;;;;;;6.60;99.90;;;;;;5035587;28;19960;-73
2022/03/29 08:09:37;;;;;;;;;;;6.80;99.90;;;;;;5036506;28;19952;-73
2022/03/29 08:12:03;;;;;;;;;;;6.90;99.90;;;;;;5036596;28;19905;-73
2022/03/29 08:14:28;;;;;;;;;;;7.00;99.90;;;;;;5035964;28;19905;-74
2022/03/29 08:16:57;;;;;;;;;;;7.20;99.90;;;;;;5034787;28;19904;-74
2022/03/29 08:19:23;;;;;;;;;;;7.30;99.90;;;;;;5036219;28;20325;-74
2022/03/29 08:21:49;;;;;;;;;;;7.50;99.90;;;;;;5036079;28;20008;-74
2022/03/29 08:24:19;;;;;;;;;;;7.70;99.90;;;;;;5035809;28;19909;-74
2022/03/29 08:26:45;;;;;;;;;;;7.80;99.50;;;;;;5035821;28;19919;-74
2022/03/29 08:29:12;;;;;;;;;;;7.90;99.40;;;;;;5034471;28;19905;-74
2022/03/29 08:31:38;;;;;;;;;;;8.00;99.40;;;;;;5035730;28;19928;-74
2022/03/29 08:34:04;;;;;;;;;;;8.20;98.10;;;;;;5035584;28;19905;-74
2022/03/29 08:36:30;;;;;;;;;;;8.30;97.80;;;;;;5035600;28;19909;-74
2022/03/29 08:38:56;;;;;;;;;;;8.40;97.10;;;;;;5035490;28;19956;-74
2022/03/29 08:41:21;;;;;;;;;;;8.60;96.90;;;;;;5035405;28;19974;-74
2022/03/29 08:43:48;;;;;;;;;;;8.70;97.30;;;;;;5035620;28;20500;-74
2022/03/29 08:46:13;;;;;;;;;;;8.80;97.30;;;;;;5035413;28;19905;-74
2022/03/29 08:48:41;;;;;;;;;;;8.90;95.90;;;;;;5034166;28;19912;-74
2022/03/29 08:51:06;;;;;;;;;;;9.00;94.90;;;;;;5035331;28;19905;-74
2022/03/29 08:53:32;;;;;;;;;;;9.10;94.00;;;;;;5035699;28;19912;-74
2022/03/29 08:55:57;;;;;;;;;;;9.20;92.80;;;;;;5033908;28;20000;-74
2022/03/29 08:58:24;;;;;;;;;;;9.30;91.90;;;;;;5035521;28;19905;-74
2022/03/29 09:00:50;;;;;;;;;;;9.40;92.10;;;;;;5035126;28;20280;-74
2022/03/29 09:03:16;;;;;;;;;;;9.60;91.90;;;;;;5035150;28;20003;-74
2022/03/29 09:05:42;;;;;;;;;;;9.70;91.10;;;;;;5035023;28;19912;-74
2022/03/29 09:08:11;;;;;;;;;;;9.90;86.80;;;;;;5035006;28;19909;-74
2022/03/29 09:10:39;;;;;;;;;;;10.00;84.60;;;;;;5035278;28;19912;-73
2022/03/29 09:13:26;;;;;;;;;;;10.20;83.70;;;;;;5034820;28;19905;-74
2022/03/29 09:15:53;;;;;;;;;;;10.30;85.90;;;;;;5034910;28;20361;-74
2022/03/29 09:18:19;;;;;;;;;;;10.50;87.50;;;;;;5034605;28;19915;-74
2022/03/29 09:20:48;;;;;;;;;;;10.70;85.60;;;;;;5035021;28;20003;-74
2022/03/29 09:23:18;;;;;;;;;;;10.80;83.60;;;;;;5034819;28;19905;-73
2022/03/29 09:25:47;;;;;;;;;;;11.00;83.00;;;;;;5034857;28;19916;-74
2022/03/29 09:28:17;;;;;;;;;;;11.10;79.80;;;;;;5034711;28;19916;-74
2022/03/29 09:30:44;;;;;;;;;;;11.20;81.40;;;;;;5034854;28;19912;-74
2022/03/29 09:33:17;;;;;;;;;;;11.30;81.30;;;;;;5034678;28;19905;-73
2022/03/29 09:35:59;;;;;;;;;;;11.40;79.30;;;;;;5034585;28;19992;-74
2022/03/29 09:38:34;;;;;;;;;;;11.60;79.50;;;;;;5034742;28;19935;-73
2022/03/29 09:41:00;;;;;;;;;;;11.70;77.70;;;;;;5034354;28;19909;-74
2022/03/29 09:43:27;;;;;;;;;;;11.80;77.00;;;;;;5034847;28;19955;-73
2022/03/29 09:45:55;;;;;;;;;;;11.90;75.20;;;;;;5034904;28;20002;-73
2022/03/29 09:48:26;;;;;;;;;;;12.10;76.10;;;;;;5034275;28;19905;-73
2022/03/29 09:50:53;;;;;;;;;;;12.30;74.80;;;;;;5034258;28;19905;-73
2022/03/29 09:53:34;;;;;;;;;;;12.40;75.10;;;;;;5034074;28;19915;-73
2022/03/29 09:56:00;;;;;;;;;;;12.60;74.60;;;;;;5034194;28;19905;-74
2022/03/29 09:58:26;;;;;;;;;;;12.70;73.20;;;;;;5032891;28;20272;-73
2022/03/29 10:00:51;;;;;;;;;;;12.80;70.00;;;;;;5034417;28;20361;-73
2022/03/29 10:03:17;;;;;;;;;;;12.90;70.60;;;;;;5034020;28;19991;-73
2022/03/29 10:05:46;;;;;;;;;;;13.00;70.80;;;;;;5034354;28;19955;-73
2022/03/29 10:11:01;;;;;;;;;;;13.20;69.00;;;;;;5034760;28;19912;-73
2022/03/29 10:13:28;;;;;;;;;;;13.20;70.90;;;;;;5034329;28;19909;-73
2022/03/29 10:15:54;;;;;;;;;;;13.40;70.20;;;;;;5034475;28;20269;-73
2022/03/29 10:18:21;;;;;;;;;;;13.50;69.60;;;;;;5034925;28;19931;-73
2022/03/29 10:20:48;;;;;;;;;;;13.60;68.80;;;;;;5035058;28;19951;-73
2022/03/29 10:23:21;;;;;;;;;;;13.80;69.80;;;;;;5035497;28;19928;-73
2022/03/29 10:25:47;;;;;;;;;;;13.90;67.80;;;;;;5035508;28;19913;-73
2022/03/29 10:28:13;;;;;;;;;;;14.10;67.20;;;;;;5035523;28;19933;-73
2022/03/29 10:30:42;;;;;;;;;;;14.20;64.40;;;;;;5040877;28;19909;-73
2022/03/29 10:33:24;;;;;;;;;;;14.20;64.10;;;;;;5040995;28;19905;-73
2022/03/29 10:35:58;;;;;;;;;;;14.30;63.50;;;;;;5040512;28;19927;-73
2022/03/29 10:38:42;;;;;;;;;;;14.40;64.20;;;;;;5041244;28;19905;-73
2022/03/29 10:41:26;;;;;;;;;;;14.50;64.00;;;;;;5040335;28;20324;-73
2022/03/29 10:44:04;;;;;;;;;;;14.60;63.10;;;;;;5040552;28;19982;-73
2022/03/29 10:46:32;;;;;;;;;;;14.60;62.60;;;;;;5040335;28;20071;-73
2022/03/29 10:49:17;;;;;;;;;;;14.80;60.40;;;;;;5039062;28;19909;-73
2022/03/29 10:51:43;;;;;;;;;;;14.80;57.80;;;;;;5039059;28;19955;-73
2022/03/29 10:54:29;;;;;;;;;;;15.00;57.10;;;;;;5040284;28;20296;-73
2022/03/29 10:56:59;;;;;;;;;;;15.10;57.20;;;;;;5039903;28;20416;-73
2022/03/29 10:59:25;;;;;;;;;;;15.20;56.80;;;;;;5040349;28;19995;-73
2022/03/29 11:02:06;;;;;;;;;;;15.40;55.20;;;;;;5040320;28;19909;-73
2022/03/29 11:04:32;;;;;;;;;;;15.60;55.90;;;;;;5040173;28;20328;-73
2022/03/29 11:07:06;;;;;;;;;;;15.70;54.90;;;;;;5040409;28;19905;-73
2022/03/29 11:09:35;;;;;;;;;;;15.90;53.20;;;;;;5039999;28;19995;-73
2022/03/29 11:12:01;;;;;;;;;;;15.90;52.50;;;;;;5040412;28;19909;-73
2022/03/29 11:14:37;;;;;;;;;;;16.10;50.60;;;;;;5040066;28;19912;-73
2022/03/29 11:17:09;;;;;;;;;;;16.20;48.70;;;;;;5038683;28;19948;-72
2022/03/29 11:19:46;;;;;;;;;;;16.30;51.50;;;;;;5040490;28;19931;-72
2022/03/29 11:22:24;;;;;;;;;;;16.40;49.40;;;;;;5040167;28;20268;-73
2022/03/29 11:24:50;;;;;;;;;;;16.50;47.20;;;;;;5040222;28;19955;-73
2022/03/29 11:27:31;;;;;;;;;;;16.40;46.80;;;;;;5039832;28;19913;-73
2022/03/29 11:29:57;;;;;;;;;;;16.30;47.30;;;;;;5039942;28;19909;-72
2022/03/29 11:32:23;;;;;;;;;;;16.30;46.50;;;;;;5040134;28;19959;-72
2022/03/29 11:34:52;;;;;;;;;;;16.30;46.40;;;;;;5039808;28;19909;-72
2022/03/29 11:37:37;;;;;;;;;;;16.30;45.40;;;;;;5039886;28;19912;-72
2022/03/29 11:40:03;;;;;;;;;;;16.30;46.80;;;;;;5038723;28;19956;-72
2022/03/29 11:42:41;;;;;;;;;;;16.50;46.70;;;;;;5036654;28;19912;-73
2022/03/29 11:45:07;;;;;;;;;;;16.70;48.40;;;;;;5036710;28;19952;-72
2022/03/29 11:47:32;;;;;;;;;;;16.90;45.80;;;;;;5036643;28;19909;-72
2022/03/29 11:49:58;;;;;;;;;;;17.00;45.60;;;;;;5036548;28;19931;-72
2022/03/29 11:52:31;;;;;;;;;;;17.10;46.00;;;;;;5036821;28;19908;-73
2022/03/29 11:54:57;;;;;;;;;;;17.10;45.70;;;;;;5036871;28;19912;-72
2022/03/29 11:57:24;;;;;;;;;;;17.20;43.40;;;;;;5037182;28;19973;-72
2022/03/29 11:59:50;;;;;;;;;;;17.10;44.90;;;;;;5036378;28;19905;-72
2022/03/29 12:02:18;;;;;;;;;;;17.00;44.50;;;;;;5036759;28;19970;-73
2022/03/29 12:04:47;;;;;;;;;;;17.10;45.20;;;;;;5035012;28;20395;-72
2022/03/29 12:07:14;;;;;;;;;;;17.20;46.70;;;;;;5036328;28;19905;-72
2022/03/29 12:09:44;;;;;;;;;;;17.40;45.40;;;;;;5036295;28;20400;-72
2022/03/29 12:12:10;;;;;;;;;;;17.40;43.90;;;;;;5037112;28;20272;-72
2022/03/29 12:14:35;;;;;;;;;;;17.50;42.70;;;;;;5036069;28;19931;-72
2022/03/29 12:17:08;;;;;;;;;;;17.50;43.70;;;;;;5036061;28;19955;-73
2022/03/29 12:19:34;;;;;;;;;;;17.50;41.60;;;;;;5036096;28;19911;-72
2022/03/29 12:22:02;;;;;;;;;;;17.50;43.50;;;;;;5035283;28;19916;-74
2022/03/29 12:24:44;;;;;;;;;;;17.50;42.60;;;;;;5035570;28;19936;-72
2022/03/29 12:27:13;;;;;;;;;;;17.50;40.60;;;;;;5033678;28;19921;-75
2022/03/29 12:29:53;;;;;;;;;;;17.40;41.20;;;;;;5030951;28;19917;-72
2022/03/29 12:32:20;;;;;;;;;;;17.50;40.80;;;;;;5021438;28;19913;-74
2022/03/29 12:34:56;;;;;;;;;;;17.50;41.60;;;;;;5029901;28;20350;-73
2022/03/29 12:37:23;;;;;;;;;;;17.60;41.40;;;;;;5024374;28;19909;-73
2022/03/29 12:39:53;;;;;;;;;;;17.60;42.20;;;;;;5022421;28;19919;-73
2022/03/29 12:42:19;;;;;;;;;;;17.80;42.20;;;;;;5022224;28;19952;-73
2022/03/29 12:44:55;;;;;;;;;;;17.80;42.60;;;;;;5016354;28;19909;-73
2022/03/29 12:47:21;;;;;;;;;;;17.80;41.70;;;;;;5033963;28;19917;-73
2022/03/29 12:49:49;;;;;;;;;;;17.90;39.60;;;;;;5024955;28;19919;-74
2022/03/29 12:52:16;;;;;;;;;;;17.80;40.90;;;;;;5034245;28;19909;-74
2022/03/29 12:54:50;;;;;;;;;;;17.80;41.10;;;;;;5034727;28;20238;-73
2022/03/29 12:57:22;;;;;;;;;;;17.90;43.10;;;;;;5035065;28;19912;-73
2022/03/29 12:59:49;;;;;;;;;;;17.90;43.20;;;;;;5034972;28;20368;-72
2022/03/29 13:02:18;;;;;;;;;;;17.90;43.10;;;;;;5035694;28;20385;-74
2022/03/29 13:04:46;;;;;;;;;;;18.00;42.20;;;;;;5035805;28;19905;-72
2022/03/29 13:07:29;;;;;;;;;;;18.00;42.40;;;;;;5035514;28;19927;-72
2022/03/29 13:10:00;;;;;;;;;;;18.00;42.00;;;;;;5035804;28;20281;-72
2022/03/29 13:12:25;;;;;;;;;;;18.00;41.70;;;;;;5034971;28;19905;-73
2022/03/29 13:14:51;;;;;;;;;;;18.10;42.00;;;;;;5035264;28;20008;-73
2022/03/29 13:17:16;;;;;;;;;;;18.10;41.00;;;;;;5034899;28;19905;-72
2022/03/29 13:19:54;;;;;;;;;;;18.20;39.60;;;;;;5035388;28;19906;-72
2022/03/29 13:22:20;;;;;;;;;;;18.20;39.80;;;;;;5034745;28;19999;-73
2022/03/29 13:24:46;;;;;;;;;;;18.30;40.10;;;;;;5034673;28;20346;-72
2022/03/29 13:27:12;;;;;;;;;;;18.30;39.40;;;;;;5034778;28;19913;-72
2022/03/29 13:29:38;;;;;;;;;;;18.40;39.50;;;;;;5034641;28;19931;-72
2022/03/29 13:32:06;;;;;;;;;;;18.40;38.40;;;;;;5034577;28;19909;-72
2022/03/29 13:34:31;;;;;;;;;;;18.40;39.90;;;;;;5034472;28;19928;-72
2022/03/29 13:36:57;;;;;;;;;;;18.30;39.30;;;;;;5034546;28;19905;-72
2022/03/29 13:39:23;;;;;;;;;;;18.20;39.90;;;;;;5034859;28;19959;-72
2022/03/29 13:41:49;;;;;;;;;;;18.20;40.50;;;;;;5034327;28;19913;-71
2022/03/29 13:44:14;;;;;;;;;;;18.10;40.80;;;;;;5034386;28;19916;-72
2022/03/29 13:46:40;;;;;;;;;;;18.00;41.00;;;;;;5034347;28;19905;-72
2022/03/29 13:49:06;;;;;;;;;;;18.00;39.10;;;;;;5034330;28;19905;-72
2022/03/29 13:51:31;;;;;;;;;;;17.90;40.80;;;;;;5034288;28;20047;-72
2022/03/29 13:53:57;;;;;;;;;;;17.80;41.10;;;;;;5034396;28;20258;-71
2022/03/29 13:56:23;;;;;;;;;;;17.70;41.40;;;;;;5034182;28;20254;-72
2022/03/29 13:58:49;;;;;;;;;;;17.50;42.40;;;;;;5034179;28;19905;-71
2022/03/29 14:01:15;;;;;;;;;;;17.40;43.80;;;;;;5034103;28;20349;-71
2022/03/29 14:03:41;;;;;;;;;;;17.50;42.90;;;;;;5033547;28;19996;-71
2022/03/29 14:06:07;;;;;;;;;;;17.50;42.80;;;;;;5034032;28;19905;-71
2022/03/29 14:08:33;;;;;;;;;;;17.40;42.60;;;;;;5034121;28;19905;-72
2022/03/29 14:10:59;;;;;;;;;;;17.40;42.10;;;;;;5034267;28;19916;-71
2022/03/29 14:13:29;;;;;;;;;;;17.30;42.10;;;;;;5034090;28;20007;-71
2022/03/29 14:15:55;;;;;;;;;;;17.20;42.10;;;;;;5034145;28;19905;-70
2022/03/29 14:18:22;;;;;;;;;;;17.30;41.70;;;;;;5034446;28;19963;-71
2022/03/29 14:20:50;;;;;;;;;;;17.20;42.10;;;;;;5032653;28;19916;-72
2022/03/29 14:23:15;;;;;;;;;;;17.20;42.50;;;;;;5034142;28;20336;-71
2022/03/29 14:25:41;;;;;;;;;;;17.20;42.70;;;;;;5033729;28;19996;-72
2022/03/29 14:28:07;;;;;;;;;;;17.30;42.60;;;;;;5032501;28;19905;-70
2022/03/29 14:30:33;;;;;;;;;;;17.30;42.40;;;;;;5033818;28;19955;-70
2022/03/29 14:32:59;;;;;;;;;;;17.30;42.80;;;;;;5033724;28;19909;-72
2022/03/29 14:35:25;;;;;;;;;;;17.20;42.90;;;;;;5033726;28;19905;-71